Terminal Aerodrome Forecast
Issued by NWS King Salmon, AK

Home | Current Version | Previous Version | Text Only | Print | Product List | Glossary On
Versions: 1 2 3 4 5 6 7 8 9 10 11 12 13 14 15 16 17 18 19 20 21 22 23 24 25 26
000
FTAK31 PANC 290527
TAFAKN
TAF
PAKN 290527Z 2906/3006 24014KT P6SM VCSH SCT030 BKN090
     FM291200 22007KT 6SM BR SCT005 SCT090
     FM291400 20005KT 5SM BR BKN005
     FM291800 22010KT P6SM SCT005 BKN025
     FM300000 24011G18KT P6SM SCT025 BKN050=

USA.gov is the U.S. government's official web portal to all federal, state and local government web resources and services.